sensor_id;sensor_type;location;lat;lon;timestamp;pressure;altitude;pressure_sealevel;temperature;humidity
15670;BME280;18524;45.190;5.732;2024-02-23T00:04:15;97973.19;;;10.38;100.00
15670;BME280;18524;45.190;5.732;2024-02-23T00:09:06;97958.53;;;10.45;100.00
15670;BME280;18524;45.190;5.732;2024-02-23T00:13:56;97953.00;;;10.48;100.00
15670;BME280;18524;45.190;5.732;2024-02-23T00:18:46;97950.22;;;10.31;100.00
15670;BME280;18524;45.190;5.732;2024-02-23T00:23:37;97969.06;;;10.17;100.00
15670;BME280;18524;45.190;5.732;2024-02-23T00:28:27;97973.78;;;10.14;100.00
15670;BME280;18524;45.190;5.732;2024-02-23T00:33:18;97970.94;;;10.07;100.00
15670;BME280;18524;45.190;5.732;2024-02-23T00:38:08;97952.97;;;9.94;100.00
15670;BME280;18524;45.190;5.732;2024-02-23T00:42:58;97942.72;;;9.83;100.00
15670;BME280;18524;45.190;5.732;2024-02-23T00:47:50;97931.34;;;9.92;100.00
15670;BME280;18524;45.190;5.732;2024-02-23T00:52:40;97911.44;;;9.99;100.00
15670;BME280;18524;45.190;5.732;2024-02-23T00:57:31;97921.84;;;10.09;100.00
15670;BME280;18524;45.190;5.732;2024-02-23T01:02:21;97933.75;;;10.03;100.00
15670;BME280;18524;45.190;5.732;2024-02-23T01:07:12;97924.53;;;9.99;100.00
15670;BME280;18524;45.190;5.732;2024-02-23T01:12:02;97925.75;;;10.05;100.00
15670;BME280;18524;45.190;5.732;2024-02-23T01:16:53;97904.66;;;10.07;100.00
15670;BME280;18524;45.190;5.732;2024-02-23T01:21:43;97889.09;;;10.05;100.00
15670;BME280;18524;45.190;5.732;2024-02-23T01:26:34;97893.63;;;9.85;100.00
15670;BME280;18524;45.190;5.732;2024-02-23T01:31:24;97857.28;;;9.82;100.00
15670;BME280;18524;45.190;5.732;2024-02-23T01:36:14;97828.94;;;9.78;100.00
15670;BME280;18524;45.190;5.732;2024-02-23T01:41:05;97839.88;;;9.73;100.00
15670;BME280;18524;45.190;5.732;2024-02-23T01:45:56;97851.75;;;9.67;100.00
15670;BME280;18524;45.190;5.732;2024-02-23T01:50:47;97865.22;;;9.73;100.00
15670;BME280;18524;45.190;5.732;2024-02-23T01:55:38;97856.06;;;9.59;100.00
15670;BME280;18524;45.190;5.732;2024-02-23T02:00:30;97848.59;;;9.46;100.00
15670;BME280;18524;45.190;5.732;2024-02-23T02:05:21;97840.44;;;9.49;100.00
15670;BME280;18524;45.190;5.732;2024-02-23T02:10:12;97840.00;;;9.54;100.00
15670;BME280;18524;45.190;5.732;2024-02-23T02:15:03;97842.47;;;9.55;100.00
15670;BME280;18524;45.190;5.732;2024-02-23T02:19:54;97837.97;;;9.48;100.00
15670;BME280;18524;45.190;5.732;2024-02-23T02:24:44;97839.78;;;9.29;100.00
15670;BME280;18524;45.190;5.732;2024-02-23T02:29:36;97810.16;;;9.29;100.00
15670;BME280;18524;45.190;5.732;2024-02-23T02:34:27;97809.69;;;8.88;100.00
15670;BME280;18524;45.190;5.732;2024-02-23T02:39:18;97809.44;;;8.64;100.00
15670;BME280;18524;45.190;5.732;2024-02-23T02:44:09;97808.91;;;8.60;100.00
15670;BME280;18524;45.190;5.732;2024-02-23T02:48:59;97795.69;;;8.62;100.00
15670;BME280;18524;45.190;5.732;2024-02-23T02:53:50;97802.91;;;8.40;100.00
15670;BME280;18524;45.190;5.732;2024-02-23T02:58:40;97807.59;;;8.37;100.00
15670;BME280;18524;45.190;5.732;2024-02-23T03:03:30;97800.28;;;8.31;100.00
15670;BME280;18524;45.190;5.732;2024-02-23T03:08:21;97778.59;;;8.30;100.00
15670;BME280;18524;45.190;5.732;2024-02-23T03:13:11;97764.06;;;8.08;100.00
15670;BME280;18524;45.190;5.732;2024-02-23T03:18:02;97766.53;;;8.10;100.00
15670;BME280;18524;45.190;5.732;2024-02-23T03:22:52;97766.41;;;8.11;100.00
15670;BME280;18524;45.190;5.732;2024-02-23T03:27:43;97749.47;;;8.15;100.00
15670;BME280;18524;45.190;5.732;2024-02-23T03:32:33;97745.34;;;8.13;100.00
15670;BME280;18524;45.190;5.732;2024-02-23T03:37:26;97738.22;;;8.15;100.00
15670;BME280;18524;45.190;5.732;2024-02-23T03:42:17;97742.47;;;8.16;100.00
15670;BME280;18524;45.190;5.732;2024-02-23T03:47:07;97760.75;;;8.16;100.00
15670;BME280;18524;45.190;5.732;2024-02-23T03:51:57;97748.31;;;7.91;100.00
15670;BME280;18524;45.190;5.732;2024-02-23T03:56:48;97738.84;;;7.90;100.00
15670;BME280;18524;45.190;5.732;2024-02-23T04:01:38;97730.47;;;7.76;100.00
15670;BME280;18524;45.190;5.732;2024-02-23T04:06:29;97715.50;;;7.78;100.00
15670;BME280;18524;45.190;5.732;2024-02-23T04:11:19;97712.09;;;7.68;100.00
15670;BME280;18524;45.190;5.732;2024-02-23T04:16:10;97692.75;;;7.71;100.00
15670;BME280;18524;45.190;5.732;2024-02-23T04:21:00;97689.56;;;7.87;100.00
15670;BME280;18524;45.190;5.732;2024-02-23T04:25:50;97668.25;;;7.91;100.00
15670;BME280;18524;45.190;5.732;2024-02-23T04:30:41;97665.09;;;7.78;100.00
15670;BME280;18524;45.190;5.732;2024-02-23T04:35:31;97689.97;;;7.72;100.00
15670;BME280;18524;45.190;5.732;2024-02-23T04:40:21;97687.53;;;7.71;100.00
15670;BME280;18524;45.190;5.732;2024-02-23T04:45:12;97687.66;;;7.69;100.00
15670;BME280;18524;45.190;5.732;2024-02-23T04:50:02;97689.06;;;7.54;100.00
15670;BME280;18524;45.190;5.732;2024-02-23T04:54:53;97696.63;;;7.57;100.00
15670;BME280;18524;45.190;5.732;2024-02-23T04:59:43;97706.50;;;7.63;100.00
15670;BME280;18524;45.190;5.732;2024-02-23T05:04:34;97701.38;;;7.71;100.00
15670;BME280;18524;45.190;5.732;2024-02-23T05:09:24;97705.38;;;7.66;100.00
15670;BME280;18524;45.190;5.732;2024-02-23T05:14:14;97706.34;;;7.65;100.00
15670;BME280;18524;45.190;5.732;2024-02-23T05:19:05;97709.69;;;7.47;100.00
15670;BME280;18524;45.190;5.732;2024-02-23T05:23:55;97713.41;;;7.45;100.00
15670;BME280;18524;45.190;5.732;2024-02-23T05:28:46;97716.38;;;7.60;100.00
15670;BME280;18524;45.190;5.732;2024-02-23T05:33:36;97720.78;;;7.59;100.00
15670;BME280;18524;45.190;5.732;2024-02-23T05:38:28;97722.56;;;7.59;100.00
15670;BME280;18524;45.190;5.732;2024-02-23T05:43:18;97721.91;;;7.47;100.00
15670;BME280;18524;45.190;5.732;2024-02-23T05:48:09;97712.84;;;7.32;100.00
15670;BME280;18524;45.190;5.732;2024-02-23T05:52:59;97724.09;;;7.22;100.00
15670;BME280;18524;45.190;5.732;2024-02-23T05:57:49;97720.25;;;7.17;100.00
15670;BME280;18524;45.190;5.732;2024-02-23T06:02:40;97721.50;;;7.13;100.00
15670;BME280;18524;45.190;5.732;2024-02-23T06:07:31;97723.69;;;7.27;100.00
15670;BME280;18524;45.190;5.732;2024-02-23T06:12:22;97726.84;;;7.21;100.00
15670;BME280;18524;45.190;5.732;2024-02-23T06:17:13;97733.72;;;7.12;100.00
15670;BME280;18524;45.190;5.732;2024-02-23T06:22:03;97729.59;;;7.10;100.00
15670;BME280;18524;45.190;5.732;2024-02-23T06:26:54;97734.53;;;7.22;100.00
15670;BME280;18524;45.190;5.732;2024-02-23T06:31:44;97732.06;;;7.21;100.00
15670;BME280;18524;45.190;5.732;2024-02-23T06:36:39;97733.16;;;7.09;100.00
15670;BME280;18524;45.190;5.732;2024-02-23T06:41:29;97738.06;;;7.02;100.00
15670;BME280;18524;45.190;5.732;2024-02-23T06:46:19;97733.53;;;6.85;100.00
15670;BME280;18524;45.190;5.732;2024-02-23T06:51:11;97749.31;;;6.93;100.00
15670;BME280;18524;45.190;5.732;2024-02-23T06:56:01;97741.50;;;6.83;100.00
15670;BME280;18524;45.190;5.732;2024-02-23T07:00:52;97750.81;;;6.86;100.00
15670;BME280;18524;45.190;5.732;2024-02-23T07:05:42;97754.94;;;6.98;100.00
15670;BME280;18524;45.190;5.732;2024-02-23T07:10:33;97737.53;;;6.89;100.00
15670;BME280;18524;45.190;5.732;2024-02-23T07:15:23;97741.78;;;7.00;100.00
15670;BME280;18524;45.190;5.732;2024-02-23T07:20:14;97739.31;;;6.88;100.00
15670;BME280;18524;45.190;5.732;2024-02-23T07:25:05;97744.97;;;7.22;100.00
15670;BME280;18524;45.190;5.732;2024-02-23T07:29:56;97750.56;;;7.57;100.00
15670;BME280;18524;45.190;5.732;2024-02-23T07:34:46;97760.88;;;7.48;100.00
15670;BME280;18524;45.190;5.732;2024-02-23T07:39:37;97767.69;;;7.78;100.00
15670;BME280;18524;45.190;5.732;2024-02-23T07:44:28;97766.31;;;7.94;100.00
15670;BME280;18524;45.190;5.732;2024-02-23T07:49:18;97759.69;;;7.99;100.00
15670;BME280;18524;45.190;5.732;2024-02-23T07:54:09;97757.63;;;8.50;100.00
15670;BME280;18524;45.190;5.732;2024-02-23T07:58:59;97757.47;;;9.06;100.00
15670;BME280;18524;45.190;5.732;2024-02-23T08:03:50;97756.25;;;9.54;100.00
15670;BME280;18524;45.190;5.732;2024-02-23T08:08:40;97755.03;;;9.84;100.00
15670;BME280;18524;45.190;5.732;2024-02-23T08:13:31;97752.81;;;9.53;100.00
15670;BME280;18524;45.190;5.732;2024-02-23T08:18:21;97760.66;;;9.97;100.00
15670;BME280;18524;45.190;5.732;2024-02-23T08:23:14;97757.53;;;9.93;100.00
15670;BME280;18524;45.190;5.732;2024-02-23T08:28:04;97751.56;;;10.27;100.00
15670;BME280;18524;45.190;5.732;2024-02-23T08:32:55;97754.53;;;10.66;100.00
15670;BME280;18524;45.190;5.732;2024-02-23T08:37:45;97755.94;;;10.94;99.65
15670;BME280;18524;45.190;5.732;2024-02-23T08:42:36;97752.81;;;10.49;97.88
15670;BME280;18524;45.190;5.732;2024-02-23T08:47:26;97747.63;;;10.31;100.00
15670;BME280;18524;45.190;5.732;2024-02-23T08:52:22;97744.72;;;10.76;99.47
15670;BME280;18524;45.190;5.732;2024-02-23T08:57:12;97740.44;;;11.34;99.28
15670;BME280;18524;45.190;5.732;2024-02-23T09:02:07;97737.16;;;11.72;91.94
15670;BME280;18524;45.190;5.732;2024-02-23T09:06:57;97739.78;;;11.40;88.64
15670;BME280;18524;45.190;5.732;2024-02-23T09:11:48;97740.09;;;11.69;93.16
15670;BME280;18524;45.190;5.732;2024-02-23T09:16:39;97733.06;;;11.78;87.15
15670;BME280;18524;45.190;5.732;2024-02-23T09:21:29;97734.69;;;11.95;85.91
15670;BME280;18524;45.190;5.732;2024-02-23T09:26:19;97717.13;;;11.71;87.98
15670;BME280;18524;45.190;5.732;2024-02-23T09:31:10;97707.72;;;12.09;88.51
15670;BME280;18524;45.190;5.732;2024-02-23T09:36:01;97711.84;;;12.04;85.19
15670;BME280;18524;45.190;5.732;2024-02-23T09:40:51;97721.09;;;11.92;80.83
15670;BME280;18524;45.190;5.732;2024-02-23T09:45:42;97706.78;;;11.70;79.23
15670;BME280;18524;45.190;5.732;2024-02-23T09:50:33;97692.28;;;12.14;78.69
15670;BME280;18524;45.190;5.732;2024-02-23T09:55:23;97680.47;;;12.10;79.46
15670;BME280;18524;45.190;5.732;2024-02-23T10:00:17;97678.88;;;11.77;77.97
15670;BME280;18524;45.190;5.732;2024-02-23T10:05:08;97663.44;;;11.98;77.40
15670;BME280;18524;45.190;5.732;2024-02-23T10:10:00;97655.09;;;12.26;77.01
15670;BME280;18524;45.190;5.732;2024-02-23T10:14:51;97649.84;;;12.65;73.44
15670;BME280;18524;45.190;5.732;2024-02-23T10:19:44;97641.22;;;12.79;72.89
15670;BME280;18524;45.190;5.732;2024-02-23T10:24:36;97636.56;;;13.50;73.21
15670;BME280;18524;45.190;5.732;2024-02-23T10:29:27;97631.97;;;13.81;66.04
15670;BME280;18524;45.190;5.732;2024-02-23T10:34:19;97631.53;;;14.22;69.12
15670;BME280;18524;45.190;5.732;2024-02-23T10:39:10;97627.53;;;13.96;66.68
15670;BME280;18524;45.190;5.732;2024-02-23T10:44:01;97618.63;;;13.83;67.65
15670;BME280;18524;45.190;5.732;2024-02-23T10:48:54;97608.91;;;13.98;66.34
15670;BME280;18524;45.190;5.732;2024-02-23T10:53:45;97604.75;;;14.54;65.09
15670;BME280;18524;45.190;5.732;2024-02-23T10:58:36;97595.47;;;14.58;63.33
15670;BME280;18524;45.190;5.732;2024-02-23T11:03:30;97593.41;;;14.96;64.22
15670;BME280;18524;45.190;5.732;2024-02-23T11:08:21;97588.78;;;15.26;62.83
15670;BME280;18524;45.190;5.732;2024-02-23T11:13:12;97594.06;;;15.26;61.14
15670;BME280;18524;45.190;5.732;2024-02-23T11:18:02;97583.88;;;15.79;59.16
15670;BME280;18524;45.190;5.732;2024-02-23T11:22:54;97578.19;;;15.54;53.91
15670;BME280;18524;45.190;5.732;2024-02-23T11:27:49;97575.28;;;15.64;51.46
15670;BME280;18524;45.190;5.732;2024-02-23T11:32:43;97564.34;;;15.74;53.29
15670;BME280;18524;45.190;5.732;2024-02-23T11:37:56;97569.00;;;16.13;48.69
15670;BME280;18524;45.190;5.732;2024-02-23T11:42:51;97558.94;;;16.36;49.34
15670;BME280;18524;45.190;5.732;2024-02-23T11:47:42;97553.66;;;16.56;47.13
15670;BME280;18524;45.190;5.732;2024-02-23T11:52:32;97549.63;;;16.67;45.88
15670;BME280;18524;45.190;5.732;2024-02-23T11:57:24;97538.69;;;17.23;48.11
15670;BME280;18524;45.190;5.732;2024-02-23T12:02:14;97529.88;;;17.55;46.56
15670;BME280;18524;45.190;5.732;2024-02-23T12:07:04;97521.19;;;17.99;45.68
15670;BME280;18524;45.190;5.732;2024-02-23T12:11:55;97504.38;;;17.67;42.03
15670;BME280;18524;45.190;5.732;2024-02-23T12:16:45;97508.25;;;17.45;41.68
15670;BME280;18524;45.190;5.732;2024-02-23T12:21:35;97497.53;;;17.20;40.02
15670;BME280;18524;45.190;5.732;2024-02-23T12:26:26;97487.69;;;17.40;39.19
15670;BME280;18524;45.190;5.732;2024-02-23T12:31:23;97485.75;;;16.76;39.36
15670;BME280;18524;45.190;5.732;2024-02-23T12:36:15;97477.13;;;16.41;41.70
15670;BME280;18524;45.190;5.732;2024-02-23T12:41:05;97477.47;;;16.25;42.81
15670;BME280;18524;45.190;5.732;2024-02-23T12:45:57;97470.13;;;16.14;42.52
15670;BME280;18524;45.190;5.732;2024-02-23T12:50:48;97468.94;;;16.23;43.44
15670;BME280;18524;45.190;5.732;2024-02-23T12:55:38;97466.13;;;16.38;45.32
15670;BME280;18524;45.190;5.732;2024-02-23T13:00:29;97449.66;;;16.62;45.37
15670;BME280;18524;45.190;5.732;2024-02-23T13:05:19;97449.50;;;16.77;42.99
15670;BME280;18524;45.190;5.732;2024-02-23T13:10:10;97441.13;;;16.80;44.28
15670;BME280;18524;45.190;5.732;2024-02-23T13:15:00;97450.47;;;16.69;45.06
15670;BME280;18524;45.190;5.732;2024-02-23T13:19:50;97444.56;;;16.61;44.47
15670;BME280;18524;45.190;5.732;2024-02-23T13:24:41;97441.50;;;16.50;44.77
15670;BME280;18524;45.190;5.732;2024-02-23T13:29:33;97428.63;;;16.21;42.26
15670;BME280;18524;45.190;5.732;2024-02-23T13:34:23;97435.28;;;15.90;43.71
15670;BME280;18524;45.190;5.732;2024-02-23T13:39:14;97429.56;;;15.80;46.21
15670;BME280;18524;45.190;5.732;2024-02-23T13:44:04;97439.09;;;15.75;43.44
15670;BME280;18524;45.190;5.732;2024-02-23T13:49:03;97434.59;;;15.62;43.59
15670;BME280;18524;45.190;5.732;2024-02-23T13:53:54;97432.25;;;15.52;44.96
15670;BME280;18524;45.190;5.732;2024-02-23T13:58:44;97429.56;;;15.39;41.21
15670;BME280;18524;45.190;5.732;2024-02-23T14:03:36;97426.06;;;15.25;43.96
15670;BME280;18524;45.190;5.732;2024-02-23T14:08:26;97420.09;;;15.17;46.94
15670;BME280;18524;45.190;5.732;2024-02-23T14:13:17;97420.47;;;15.07;47.48
15670;BME280;18524;45.190;5.732;2024-02-23T14:18:07;97412.31;;;15.02;45.02
15670;BME280;18524;45.190;5.732;2024-02-23T14:22:57;97406.84;;;15.04;44.08
15670;BME280;18524;45.190;5.732;2024-02-23T14:27:48;97399.66;;;14.91;46.44
15670;BME280;18524;45.190;5.732;2024-02-23T14:32:38;97406.69;;;14.84;46.12
15670;BME280;18524;45.190;5.732;2024-02-23T14:37:30;97409.31;;;14.77;45.27
15670;BME280;18524;45.190;5.732;2024-02-23T14:42:21;97398.53;;;14.79;46.05
15670;BME280;18524;45.190;5.732;2024-02-23T14:47:11;97403.88;;;14.85;46.85
15670;BME280;18524;45.190;5.732;2024-02-23T14:52:03;97408.91;;;14.80;44.37
15670;BME280;18524;45.190;5.732;2024-02-23T14:56:54;97408.44;;;14.70;45.12
15670;BME280;18524;45.190;5.732;2024-02-23T15:01:44;97410.38;;;14.55;46.18
15670;BME280;18524;45.190;5.732;2024-02-23T15:06:35;97419.06;;;14.34;46.18
15670;BME280;18524;45.190;5.732;2024-02-23T15:11:27;97421.34;;;14.16;47.13
15670;BME280;18524;45.190;5.732;2024-02-23T15:16:18;97419.13;;;13.98;46.26
15670;BME280;18524;45.190;5.732;2024-02-23T15:21:08;97413.44;;;13.94;47.86
15670;BME280;18524;45.190;5.732;2024-02-23T15:25:58;97412.63;;;13.94;47.08
15670;BME280;18524;45.190;5.732;2024-02-23T15:30:50;97408.91;;;13.88;51.31
15670;BME280;18524;45.190;5.732;2024-02-23T15:35:40;97411.09;;;13.85;49.07
15670;BME280;18524;45.190;5.732;2024-02-23T15:40:31;97417.97;;;13.64;49.54
15670;BME280;18524;45.190;5.732;2024-02-23T15:45:21;97422.59;;;13.62;51.42
15670;BME280;18524;45.190;5.732;2024-02-23T15:50:11;97423.28;;;13.71;52.94
15670;BME280;18524;45.190;5.732;2024-02-23T15:55:02;97424.78;;;13.59;52.11
15670;BME280;18524;45.190;5.732;2024-02-23T15:59:52;97414.47;;;13.42;53.75
15670;BME280;18524;45.190;5.732;2024-02-23T16:04:43;97423.06;;;13.36;53.22
15670;BME280;18524;45.190;5.732;2024-02-23T16:09:33;97414.28;;;13.29;54.77
15670;BME280;18524;45.190;5.732;2024-02-23T16:14:24;97415.38;;;13.20;52.08
15670;BME280;18524;45.190;5.732;2024-02-23T16:19:15;97421.53;;;13.12;52.33
15670;BME280;18524;45.190;5.732;2024-02-23T16:24:05;97422.16;;;13.00;52.28
15670;BME280;18524;45.190;5.732;2024-02-23T16:28:55;97429.50;;;12.90;54.80
15670;BME280;18524;45.190;5.732;2024-02-23T16:33:48;97434.31;;;12.86;53.62
15670;BME280;18524;45.190;5.732;2024-02-23T16:38:38;97423.69;;;12.79;55.46
15670;BME280;18524;45.190;5.732;2024-02-23T16:43:30;97422.97;;;12.71;57.63
15670;BME280;18524;45.190;5.732;2024-02-23T16:48:20;97421.97;;;12.72;54.28
15670;BME280;18524;45.190;5.732;2024-02-23T16:53:11;97419.47;;;12.56;54.26
15670;BME280;18524;45.190;5.732;2024-02-23T16:58:01;97424.97;;;12.46;56.13
15670;BME280;18524;45.190;5.732;2024-02-23T17:02:52;97434.28;;;12.34;56.83
15670;BME280;18524;45.190;5.732;2024-02-23T17:07:44;97437.56;;;12.36;58.41
15670;BME280;18524;45.190;5.732;2024-02-23T17:12:34;97446.63;;;12.33;56.68
15670;BME280;18524;45.190;5.732;2024-02-23T17:17:25;97461.56;;;12.33;58.86
15670;BME280;18524;45.190;5.732;2024-02-23T17:22:15;97468.84;;;12.23;61.61
15670;BME280;18524;45.190;5.732;2024-02-23T17:27:06;97472.72;;;12.12;65.33
15670;BME280;18524;45.190;5.732;2024-02-23T17:31:57;97485.22;;;12.10;65.23
15670;BME280;18524;45.190;5.732;2024-02-23T17:36:47;97480.41;;;12.13;68.43
15670;BME280;18524;45.190;5.732;2024-02-23T17:41:38;97483.88;;;12.14;70.37
15670;BME280;18524;45.190;5.732;2024-02-23T17:46:29;97500.69;;;12.05;69.83
15670;BME280;18524;45.190;5.732;2024-02-23T17:51:20;97495.66;;;11.95;67.99
15670;BME280;18524;45.190;5.732;2024-02-23T17:56:10;97499.91;;;11.96;69.26
15670;BME280;18524;45.190;5.732;2024-02-23T18:01:02;97509.13;;;11.92;70.16
15670;BME280;18524;45.190;5.732;2024-02-23T18:05:52;97517.19;;;11.91;66.50
15670;BME280;18524;45.190;5.732;2024-02-23T18:10:43;97518.66;;;11.85;66.02
15670;BME280;18524;45.190;5.732;2024-02-23T18:15:33;97533.78;;;11.83;68.11
15670;BME280;18524;45.190;5.732;2024-02-23T18:20:23;97533.78;;;11.75;67.15
15670;BME280;18524;45.190;5.732;2024-02-23T18:25:14;97531.97;;;11.75;64.49
15670;BME280;18524;45.190;5.732;2024-02-23T18:30:06;97531.38;;;11.65;65.15
15670;BME280;18524;45.190;5.732;2024-02-23T18:34:56;97533.69;;;11.60;66.08
15670;BME280;18524;45.190;5.732;2024-02-23T18:39:47;97542.03;;;11.64;70.84
15670;BME280;18524;45.190;5.732;2024-02-23T18:44:37;97535.31;;;11.61;71.41
15670;BME280;18524;45.190;5.732;2024-02-23T18:49:27;97529.41;;;11.59;72.04
15670;BME280;18524;45.190;5.732;2024-02-23T18:54:21;97535.31;;;11.61;73.75
15670;BME280;18524;45.190;5.732;2024-02-23T18:59:12;97543.06;;;11.54;73.20
15670;BME280;18524;45.190;5.732;2024-02-23T19:04:02;97539.09;;;11.50;72.04
15670;BME280;18524;45.190;5.732;2024-02-23T19:08:52;97539.63;;;11.46;73.96
15670;BME280;18524;45.190;5.732;2024-02-23T19:13:43;97529.47;;;11.43;74.41
15670;BME280;18524;45.190;5.732;2024-02-23T19:18:33;97528.47;;;11.44;71.85
15670;BME280;18524;45.190;5.732;2024-02-23T19:23:23;97537.81;;;11.54;70.16
15670;BME280;18524;45.190;5.732;2024-02-23T19:28:14;97547.03;;;11.34;70.00
15670;BME280;18524;45.190;5.732;2024-02-23T19:33:04;97543.94;;;11.22;70.52
15670;BME280;18524;45.190;5.732;2024-02-23T19:37:54;97548.53;;;11.28;72.00
15670;BME280;18524;45.190;5.732;2024-02-23T19:42:45;97554.28;;;11.24;72.06
15670;BME280;18524;45.190;5.732;2024-02-23T19:47:35;97562.63;;;11.27;71.23
15670;BME280;18524;45.190;5.732;2024-02-23T19:52:29;97572.66;;;11.24;71.92
15670;BME280;18524;45.190;5.732;2024-02-23T19:57:19;97572.00;;;11.22;71.51
15670;BME280;18524;45.190;5.732;2024-02-23T20:02:09;97585.13;;;11.22;77.15
15670;BME280;18524;45.190;5.732;2024-02-23T20:07:03;97581.84;;;11.20;77.26
15670;BME280;18524;45.190;5.732;2024-02-23T20:11:56;97592.34;;;11.20;79.33
15670;BME280;18524;45.190;5.732;2024-02-23T20:16:46;97584.97;;;11.15;78.71
15670;BME280;18524;45.190;5.732;2024-02-23T20:21:40;97580.84;;;11.13;76.73
15670;BME280;18524;45.190;5.732;2024-02-23T20:26:30;97593.63;;;11.08;74.34
15670;BME280;18524;45.190;5.732;2024-02-23T20:31:21;97597.06;;;11.08;72.52
15670;BME280;18524;45.190;5.732;2024-02-23T20:36:11;97600.38;;;11.18;69.87
15670;BME280;18524;45.190;5.732;2024-02-23T20:41:02;97606.44;;;11.19;69.24
15670;BME280;18524;45.190;5.732;2024-02-23T20:45:52;97608.91;;;10.96;67.27
15670;BME280;18524;45.190;5.732;2024-02-23T20:50:43;97607.91;;;10.97;67.13
15670;BME280;18524;45.190;5.732;2024-02-23T20:55:33;97615.13;;;10.95;68.81
15670;BME280;18524;45.190;5.732;2024-02-23T21:00:24;97617.09;;;10.93;68.73
15670;BME280;18524;45.190;5.732;2024-02-23T21:05:15;97621.34;;;10.94;68.40
15670;BME280;18524;45.190;5.732;2024-02-23T21:10:09;97621.19;;;10.95;64.06
15670;BME280;18524;45.190;5.732;2024-02-23T21:14:59;97623.47;;;10.99;64.68
15670;BME280;18524;45.190;5.732;2024-02-23T21:19:50;97638.06;;;11.01;65.27
15670;BME280;18524;45.190;5.732;2024-02-23T21:24:40;97630.69;;;10.96;68.33
15670;BME280;18524;45.190;5.732;2024-02-23T21:29:33;97629.72;;;10.98;66.88
15670;BME280;18524;45.190;5.732;2024-02-23T21:34:23;97621.34;;;11.02;64.06
15670;BME280;18524;45.190;5.732;2024-02-23T21:39:14;97624.63;;;10.96;66.30
15670;BME280;18524;45.190;5.732;2024-02-23T21:44:04;97625.94;;;10.92;65.74
15670;BME280;18524;45.190;5.732;2024-02-23T21:48:55;97631.69;;;10.87;64.93
15670;BME280;18524;45.190;5.732;2024-02-23T21:53:46;97631.69;;;10.87;65.32
15670;BME280;18524;45.190;5.732;2024-02-23T21:58:36;97640.84;;;10.91;67.03
15670;BME280;18524;45.190;5.732;2024-02-23T22:03:29;97631.69;;;10.95;67.12
15670;BME280;18524;45.190;5.732;2024-02-23T22:08:22;97616.09;;;10.94;64.21
15670;BME280;18524;45.190;5.732;2024-02-23T22:13:12;97626.44;;;10.95;66.56
15670;BME280;18524;45.190;5.732;2024-02-23T22:18:03;97633.16;;;10.98;64.14
15670;BME280;18524;45.190;5.732;2024-02-23T22:22:55;97640.84;;;11.00;61.66
15670;BME280;18524;45.190;5.732;2024-02-23T22:27:45;97648.06;;;10.89;61.14
15670;BME280;18524;45.190;5.732;2024-02-23T22:32:36;97639.22;;;10.90;60.04
15670;BME280;18524;45.190;5.732;2024-02-23T22:37:26;97649.88;;;10.89;61.85
15670;BME280;18524;45.190;5.732;2024-02-23T22:42:17;97656.09;;;10.88;62.29
15670;BME280;18524;45.190;5.732;2024-02-23T22:47:07;97667.91;;;10.92;60.41
15670;BME280;18524;45.190;5.732;2024-02-23T22:51:57;97681.50;;;10.87;62.34
15670;BME280;18524;45.190;5.732;2024-02-23T22:56:48;97679.53;;;10.98;63.13
15670;BME280;18524;45.190;5.732;2024-02-23T23:01:38;97687.75;;;10.94;58.12
15670;BME280;18524;45.190;5.732;2024-02-23T23:06:30;97677.41;;;11.01;58.83
15670;BME280;18524;45.190;5.732;2024-02-23T23:11:20;97686.75;;;10.87;58.88
15670;BME280;18524;45.190;5.732;2024-02-23T23:16:11;97690.34;;;10.86;60.68
15670;BME280;18524;45.190;5.732;2024-02-23T23:21:01;97697.25;;;10.87;59.82
15670;BME280;18524;45.190;5.732;2024-02-23T23:25:52;97702.97;;;10.83;58.83
15670;BME280;18524;45.190;5.732;2024-02-23T23:30:43;97706.09;;;10.86;58.21
15670;BME280;18524;45.190;5.732;2024-02-23T23:35:33;97707.19;;;10.76;58.73
15670;BME280;18524;45.190;5.732;2024-02-23T23:40:23;97705.91;;;10.80;59.69
15670;BME280;18524;45.190;5.732;2024-02-23T23:45:14;97713.47;;;10.91;57.28
15670;BME280;18524;45.190;5.732;2024-02-23T23:50:05;97724.47;;;10.94;58.28
15670;BME280;18524;45.190;5.732;2024-02-23T23:54:56;97730.66;;;10.85;55.90
15670;BME280;18524;45.190;5.732;2024-02-23T23:59:46;97727.56;;;10.90;56.46
